Time;durP1;ratioP1;P1;durP2;ratioP2;P2;SDS_P1;SDS_P2;PMS_P1;PMS_P2;Temp;Humidity;BMP_temperature;BMP_pressure;BME280_temperature;BME280_humidity;BME280_pressure;Samples;Min_cycle;Max_cycle;Signal;HPM_P1;HPM_P2
2023/08/20 00:00:38;;;;;;;13.20;11.80;;;;;;;;;;2614277;54;20472;-73
2023/08/20 00:06:08;;;;;;;14.83;11.40;;;;;;;;;;2614456;54;20359;-72
2023/08/20 00:11:38;;;;;;;14.80;11.93;;;;;;;;;;2614476;31;20909;-71
2023/08/20 00:17:07;;;;;;;12.33;11.07;;;;;;;;;;2613994;54;20367;-71
2023/08/20 00:22:37;;;;;;;16.53;12.87;;;;;;;;;;2614412;54;20363;-72
2023/08/20 00:28:07;;;;;;;13.17;11.03;;;;;;;;;;2613837;54;20909;-72
2023/08/20 00:33:38;;;;;;;12.73;11.43;;;;;;;;;;2614077;54;20390;-73
2023/08/20 00:42:42;;;;;;;15.80;12.30;;;;;;;;;;2614500;54;20378;-73
2023/08/20 00:48:12;;;;;;;15.53;13.60;;;;;;;;;;2614163;54;20439;-74
2023/08/20 00:53:42;;;;;;;15.97;14.30;;;;;;;;;;2614077;54;20391;-72
2023/08/20 00:59:12;;;;;;;19.33;14.30;;;;;;;;;;2614011;54;20359;-72
2023/08/20 01:04:42;;;;;;;17.87;14.33;;;;;;;;;;2614194;54;20471;-72
2023/08/20 01:10:14;;;;;;;20.30;14.63;;;;;;;;;;2614596;54;20391;-72
2023/08/20 01:15:44;;;;;;;22.90;14.77;;;;;;;;;;2614384;54;20399;-71
2023/08/20 01:27:25;;;;;;;17.17;15.47;;;;;;;;;;2615283;54;20390;-73
2023/08/20 01:32:55;;;;;;;21.00;15.50;;;;;;;;;;2614958;54;20358;-72
2023/08/20 01:44:32;;;;;;;17.23;15.40;;;;;;;;;;2614858;54;20406;-74
2023/08/20 01:50:02;;;;;;;17.70;14.57;;;;;;;;;;2614907;54;20383;-74
2023/08/20 01:55:31;;;;;;;16.97;14.30;;;;;;;;;;2614487;54;20367;-74
2023/08/20 02:01:01;;;;;;;16.50;13.67;;;;;;;;;;2614867;54;20358;-73
2023/08/20 02:06:31;;;;;;;20.40;13.40;;;;;;;;;;2615029;54;20362;-72
2023/08/20 02:12:00;;;;;;;17.47;14.90;;;;;;;;;;2614708;54;20391;-74
2023/08/20 02:17:30;;;;;;;17.13;14.70;;;;;;;;;;2614618;54;20386;-73
2023/08/20 02:23:00;;;;;;;18.60;15.27;;;;;;;;;;2615005;54;20367;-73
2023/08/20 02:28:29;;;;;;;22.00;15.23;;;;;;;;;;2614219;54;20387;-74
2023/08/20 02:33:59;;;;;;;21.37;13.77;;;;;;;;;;2614901;39;20864;-73
2023/08/20 02:43:03;;;;;;;18.00;14.67;;;;;;;;;;2615028;54;20395;-73
2023/08/20 02:48:32;;;;;;;20.83;15.50;;;;;;;;;;2615148;54;20414;-72
2023/08/20 02:54:02;;;;;;;19.23;14.03;;;;;;;;;;2614464;54;20367;-73
2023/08/20 02:59:32;;;;;;;16.10;14.10;;;;;;;;;;2614189;54;20359;-73
2023/08/20 03:05:01;;;;;;;17.30;15.43;;;;;;;;;;2614190;54;20418;-73
2023/08/20 03:10:34;;;;;;;15.90;13.87;;;;;;;;;;2614141;54;20402;-72
2023/08/20 03:16:04;;;;;;;19.30;16.13;;;;;;;;;;2614388;54;20415;-70
2023/08/20 03:21:34;;;;;;;23.93;16.03;;;;;;;;;;2614757;54;20366;-73
2023/08/20 03:27:03;;;;;;;25.57;14.90;;;;;;;;;;2614301;54;20403;-73
2023/08/20 03:32:33;;;;;;;20.43;13.83;;;;;;;;;;2614635;54;20651;-73
2023/08/20 03:38:02;;;;;;;22.70;15.33;;;;;;;;;;2614552;46;20462;-73
2023/08/20 03:43:32;;;;;;;20.60;15.43;;;;;;;;;;2614377;54;20450;-72
2023/08/20 03:49:02;;;;;;;20.30;16.07;;;;;;;;;;2614617;54;20949;-72
2023/08/20 03:51:47;;;;;;;22.50;15.50;;;;;;;;;;2614695;54;20432;-72
2023/08/20 03:54:13;;;;;;;20.43;14.90;;;;;;;;;;2614060;54;20958;-72
2023/08/20 03:59:45;;;;;;;20.93;14.80;;;;;;;;;;2614566;54;20354;-72
2023/08/20 04:05:14;;;;;;;19.00;16.53;;;;;;;;;;2614511;54;20940;-73
2023/08/20 04:10:45;;;;;;;19.20;15.27;;;;;;;;;;2614440;54;20347;-72
2023/08/20 04:16:15;;;;;;;25.80;17.27;;;;;;;;;;2614343;54;20391;-72
2023/08/20 04:21:44;;;;;;;22.60;15.80;;;;;;;;;;2613994;54;20419;-72
2023/08/20 04:27:14;;;;;;;25.40;16.47;;;;;;;;;;2614215;54;20375;-72
2023/08/20 04:32:44;;;;;;;20.53;15.87;;;;;;;;;;2614174;54;20370;-72
2023/08/20 04:38:13;;;;;;;24.43;18.27;;;;;;;;;;2614478;46;20410;-72
2023/08/20 04:47:17;;;;;;;24.10;20.77;;;;;;;;;;2614293;54;20416;-72
2023/08/20 04:52:47;;;;;;;24.77;19.80;;;;;;;;;;2614429;54;20370;-72
2023/08/20 04:58:16;;;;;;;34.23;20.60;;;;;;;;;;2614538;54;20354;-72
2023/08/20 05:03:46;;;;;;;29.07;19.47;;;;;;;;;;2615402;54;21157;-70
2023/08/20 05:09:16;;;;;;;28.50;19.23;;;;;;;;;;2615273;54;20371;-69
2023/08/20 05:14:46;;;;;;;27.27;19.70;;;;;;;;;;2615372;54;20402;-70
2023/08/20 05:20:15;;;;;;;26.40;18.07;;;;;;;;;;2615469;46;20386;-70
2023/08/20 05:25:45;;;;;;;25.00;18.87;;;;;;;;;;2615484;54;20438;-72
2023/08/20 05:31:15;;;;;;;23.10;17.97;;;;;;;;;;2615539;54;20390;-73
2023/08/20 05:36:44;;;;;;;25.10;18.63;;;;;;;;;;2615698;54;20378;-74
2023/08/20 05:42:14;;;;;;;24.87;19.33;;;;;;;;;;2615342;54;20387;-74
2023/08/20 05:47:44;;;;;;;24.00;18.47;;;;;;;;;;2615783;39;20988;-74
2023/08/20 05:53:13;;;;;;;30.57;23.77;;;;;;;;;;2615338;54;20498;-74
2023/08/20 05:58:43;;;;;;;43.87;30.70;;;;;;;;;;2615597;54;20542;-73
2023/08/20 06:04:12;;;;;;;49.97;34.47;;;;;;;;;;2615465;54;20427;-73
2023/08/20 06:09:42;;;;;;;48.40;33.77;;;;;;;;;;2615263;54;20363;-75
2023/08/20 06:15:12;;;;;;;48.60;32.90;;;;;;;;;;2615502;54;20460;-73
2023/08/20 06:20:41;;;;;;;43.40;31.83;;;;;;;;;;2615308;54;20403;-72
2023/08/20 06:26:11;;;;;;;42.20;30.43;;;;;;;;;;2614935;54;20379;-74
2023/08/20 06:31:41;;;;;;;36.70;28.70;;;;;;;;;;2615108;54;20347;-75
2023/08/20 06:37:11;;;;;;;37.60;29.83;;;;;;;;;;2615015;54;20410;-74
2023/08/20 06:42:40;;;;;;;32.90;28.30;;;;;;;;;;2614687;54;20406;-73
2023/08/20 06:51:47;;;;;;;30.73;27.07;;;;;;;;;;2615430;46;20402;-74
2023/08/20 06:57:17;;;;;;;28.67;25.77;;;;;;;;;;2614852;54;20451;-75
2023/08/20 07:02:46;;;;;;;25.57;23.07;;;;;;;;;;2614938;39;20837;-74
2023/08/20 07:08:16;;;;;;;27.87;25.00;;;;;;;;;;2615333;39;20984;-75
2023/08/20 07:13:45;;;;;;;27.70;25.00;;;;;;;;;;2614583;54;20387;-75
2023/08/20 07:19:15;;;;;;;28.83;26.03;;;;;;;;;;2615688;39;20738;-74
2023/08/20 07:24:45;;;;;;;24.93;22.60;;;;;;;;;;2614272;54;20346;-73
2023/08/20 07:30:15;;;;;;;23.90;21.50;;;;;;;;;;2614971;54;20355;-72
2023/08/20 07:35:45;;;;;;;21.83;19.90;;;;;;;;;;2614524;54;20479;-73
2023/08/20 07:41:14;;;;;;;22.50;20.47;;;;;;;;;;2614474;54;20410;-73
2023/08/20 07:46:44;;;;;;;22.93;21.03;;;;;;;;;;2614559;54;20483;-72
2023/08/20 07:52:14;;;;;;;22.37;20.47;;;;;;;;;;2615117;39;20806;-71
2023/08/20 07:57:44;;;;;;;21.03;19.40;;;;;;;;;;2615022;39;20413;-72
2023/08/20 08:03:17;;;;;;;23.53;21.20;;;;;;;;;;2614376;46;20418;-73
2023/08/20 08:08:47;;;;;;;21.00;19.27;;;;;;;;;;2614795;54;20387;-72
2023/08/20 08:14:16;;;;;;;21.63;19.87;;;;;;;;;;2614324;54;20948;-73
2023/08/20 08:19:46;;;;;;;21.23;19.50;;;;;;;;;;2614882;54;20366;-73
2023/08/20 08:25:15;;;;;;;24.50;22.13;;;;;;;;;;2614945;54;20495;-74
2023/08/20 08:30:45;;;;;;;21.67;20.00;;;;;;;;;;2614851;54;20953;-73
2023/08/20 08:36:16;;;;;;;22.30;20.40;;;;;;;;;;2614790;54;20379;-72
2023/08/20 08:41:50;;;;;;;21.27;19.37;;;;;;;;;;2615125;54;20451;-74
2023/08/20 08:47:22;;;;;;;17.07;15.70;;;;;;;;;;2614357;54;20354;-74
2023/08/20 08:56:33;;;;;;;16.07;14.87;;;;;;;;;;2615067;54;20465;-73
2023/08/20 09:02:02;;;;;;;19.23;17.63;;;;;;;;;;2615136;54;20358;-74
2023/08/20 09:07:31;;;;;;;17.60;16.10;;;;;;;;;;2615500;54;20946;-74
2023/08/20 09:13:01;;;;;;;15.77;14.73;;;;;;;;;;2614763;54;20398;-73
2023/08/20 09:18:31;;;;;;;17.13;15.83;;;;;;;;;;2614857;54;20410;-74
2023/08/20 09:24:02;;;;;;;17.60;16.20;;;;;;;;;;2615465;39;20773;-74
2023/08/20 09:29:33;;;;;;;17.00;15.80;;;;;;;;;;2614853;54;20395;-73
2023/08/20 09:35:03;;;;;;;14.57;13.57;;;;;;;;;;2615152;54;20359;-73
2023/08/20 09:40:33;;;;;;;14.60;13.60;;;;;;;;;;2615503;54;20510;-74
2023/08/20 09:46:03;;;;;;;15.33;14.23;;;;;;;;;;2614805;54;20395;-71
2023/08/20 09:51:34;;;;;;;15.73;14.60;;;;;;;;;;2615978;39;20829;-71
2023/08/20 09:57:06;;;;;;;16.03;14.90;;;;;;;;;;2615253;54;20442;-71
2023/08/20 10:02:36;;;;;;;17.40;16.07;;;;;;;;;;2615211;54;20366;-71
2023/08/20 10:08:06;;;;;;;16.10;15.10;;;;;;;;;;2615776;54;20398;-71
2023/08/20 10:13:37;;;;;;;15.63;14.73;;;;;;;;;;2615407;54;20382;-71
2023/08/20 10:19:07;;;;;;;15.60;14.57;;;;;;;;;;2615155;54;20391;-70
2023/08/20 10:24:50;;;;;;;16.40;15.30;;;;;;;;;;2615408;54;20385;-70
2023/08/20 10:30:25;;;;;;;15.43;14.43;;;;;;;;;;2615170;54;20378;-69
2023/08/20 10:35:54;;;;;;;19.50;17.40;;;;;;;;;;2614908;54;20382;-70
2023/08/20 10:41:30;;;;;;;21.20;19.27;;;;;;;;;;2614879;54;20897;-71
2023/08/20 10:47:00;;;;;;;20.23;18.70;;;;;;;;;;2615050;54;20888;-70
2023/08/20 10:52:29;;;;;;;22.70;20.93;;;;;;;;;;2614829;54;20434;-70
2023/08/20 11:01:37;;;;;;;21.70;20.20;;;;;;;;;;2614962;54;21027;-74
2023/08/20 11:07:07;;;;;;;21.73;20.10;;;;;;;;;;2614589;54;20387;-72
2023/08/20 11:12:38;;;;;;;20.73;19.33;;;;;;;;;;2614591;54;20367;-73
2023/08/20 11:21:16;;;;;;;24.93;23.13;;;;;;;;;;2618771;54;21190;-73
2023/08/20 11:26:45;;;;;;;25.30;23.60;;;;;;;;;;2618650;54;20390;-74
2023/08/20 11:32:15;;;;;;;28.17;26.07;;;;;;;;;;2619305;38;20961;-72
2023/08/20 11:37:45;;;;;;;30.00;27.70;;;;;;;;;;2618420;54;20383;-73
2023/08/20 11:43:14;;;;;;;26.03;24.33;;;;;;;;;;2618558;54;20371;-73
2023/08/20 11:49:03;;;;;;;28.90;26.70;;;;;;;;;;2618590;54;20398;-73
2023/08/20 11:54:33;;;;;;;24.13;22.53;;;;;;;;;;2619084;54;20904;-69
2023/08/20 12:00:13;;;;;;;22.27;20.87;;;;;;;;;;2619189;54;20409;-70
2023/08/20 12:05:42;;;;;;;20.37;19.07;;;;;;;;;;2618983;54;20394;-74
2023/08/20 12:11:13;;;;;;;18.53;17.43;;;;;;;;;;2619277;54;20378;-73
2023/08/20 12:16:42;;;;;;;19.20;18.10;;;;;;;;;;2618952;54;20445;-73
2023/08/20 12:22:12;;;;;;;20.40;18.93;;;;;;;;;;2618959;54;20414;-73
2023/08/20 12:27:42;;;;;;;20.10;18.80;;;;;;;;;;2617931;54;20920;-75
2023/08/20 12:33:11;;;;;;;20.70;19.40;;;;;;;;;;2615120;54;20355;-73
2023/08/20 12:38:41;;;;;;;20.27;19.03;;;;;;;;;;2615219;54;20407;-73
2023/08/20 12:44:12;;;;;;;18.90;17.70;;;;;;;;;;2615326;54;20354;-74
2023/08/20 12:49:41;;;;;;;18.10;16.87;;;;;;;;;;2615386;54;20411;-73
2023/08/20 12:55:11;;;;;;;18.20;17.00;;;;;;;;;;2615304;54;20411;-73
2023/08/20 13:00:40;;;;;;;18.73;17.57;;;;;;;;;;2615473;39;20488;-73
2023/08/20 13:06:10;;;;;;;18.07;16.80;;;;;;;;;;2615152;54;20379;-74
2023/08/20 13:11:40;;;;;;;17.77;16.73;;;;;;;;;;2615309;54;20909;-74
2023/08/20 13:20:47;;;;;;;17.30;16.00;;;;;;;;;;2615293;54;20382;-69
2023/08/20 13:26:17;;;;;;;16.93;15.93;;;;;;;;;;2615396;54;20427;-71
2023/08/20 13:31:47;;;;;;;16.33;15.47;;;;;;;;;;2615267;54;20367;-69
2023/08/20 13:37:17;;;;;;;18.17;16.97;;;;;;;;;;2614915;54;20366;-69
2023/08/20 13:42:46;;;;;;;19.17;17.67;;;;;;;;;;2614716;54;20371;-69
2023/08/20 13:48:16;;;;;;;17.73;16.63;;;;;;;;;;2615079;54;20390;-69
2023/08/20 13:53:46;;;;;;;16.90;15.90;;;;;;;;;;2615176;54;20367;-73
2023/08/20 13:59:15;;;;;;;15.60;14.57;;;;;;;;;;2615671;54;21015;-70
2023/08/20 14:04:46;;;;;;;14.60;13.70;;;;;;;;;;2615157;54;20406;-70
2023/08/20 14:10:15;;;;;;;14.17;13.27;;;;;;;;;;2614746;54;21351;-70
2023/08/20 14:15:45;;;;;;;15.83;14.63;;;;;;;;;;2614486;54;20382;-70
2023/08/20 14:21:15;;;;;;;13.67;12.80;;;;;;;;;;2614888;54;20462;-71
2023/08/20 14:26:45;;;;;;;13.43;12.60;;;;;;;;;;2614781;54;20394;-75
2023/08/20 14:32:15;;;;;;;13.87;12.67;;;;;;;;;;2614484;54;20367;-74
2023/08/20 14:37:45;;;;;;;13.70;12.60;;;;;;;;;;2614446;54;20374;-74
2023/08/20 14:43:15;;;;;;;13.03;12.27;;;;;;;;;;2614901;39;21086;-73
2023/08/20 14:48:45;;;;;;;14.47;13.57;;;;;;;;;;2614907;54;21006;-72
2023/08/20 14:54:15;;;;;;;12.50;11.80;;;;;;;;;;2614440;54;20391;-74
2023/08/20 14:59:44;;;;;;;13.40;12.30;;;;;;;;;;2614836;54;20411;-74
2023/08/20 15:05:14;;;;;;;13.90;12.90;;;;;;;;;;2614593;54;20387;-74
2023/08/20 15:10:44;;;;;;;14.40;13.20;;;;;;;;;;2614229;54;20363;-73
2023/08/20 15:16:14;;;;;;;13.87;12.80;;;;;;;;;;2614620;54;20366;-73
2023/08/20 15:31:08;;;;;;;13.97;12.77;;;;;;;;;;2613183;54;20519;-72
2023/08/20 15:36:38;;;;;;;12.63;12.00;;;;;;;;;;2613041;54;20397;-73
2023/08/20 15:42:07;;;;;;;13.20;12.30;;;;;;;;;;2612882;54;20431;-73
2023/08/20 15:47:36;;;;;;;15.87;14.87;;;;;;;;;;2613436;54;20359;-72
2023/08/20 15:50:20;;;;;;;13.57;12.67;;;;;;;;;;2612868;47;20477;-72
2023/08/20 15:52:47;;;;;;;13.20;12.40;;;;;;;;;;2612594;47;20419;-73
2023/08/20 15:58:16;;;;;;;14.00;13.00;;;;;;;;;;2612830;54;20423;-72
2023/08/20 16:03:45;;;;;;;14.03;13.13;;;;;;;;;;2613705;54;20426;-72
2023/08/20 16:09:15;;;;;;;13.97;12.80;;;;;;;;;;2615295;54;20952;-73
2023/08/20 16:14:44;;;;;;;19.23;17.93;;;;;;;;;;2615565;54;20386;-73
2023/08/20 16:20:14;;;;;;;37.00;34.30;;;;;;;;;;2615264;54;20394;-73
2023/08/20 16:25:44;;;;;;;16.27;14.93;;;;;;;;;;2614918;54;20477;-73
2023/08/20 16:31:14;;;;;;;25.57;23.57;;;;;;;;;;2614499;54;20882;-73
2023/08/20 16:36:43;;;;;;;14.03;13.20;;;;;;;;;;2614852;54;20374;-73
2023/08/20 16:42:13;;;;;;;13.60;12.37;;;;;;;;;;2615002;54;20363;-73
2023/08/20 16:47:43;;;;;;;14.50;13.53;;;;;;;;;;2615506;54;20402;-70
2023/08/20 16:53:13;;;;;;;12.33;11.50;;;;;;;;;;2615115;54;20414;-70
2023/08/20 16:58:42;;;;;;;12.10;11.37;;;;;;;;;;2615232;54;20399;-71
2023/08/20 17:04:12;;;;;;;11.73;11.17;;;;;;;;;;2615300;54;20921;-69
2023/08/20 17:09:41;;;;;;;12.27;11.60;;;;;;;;;;2615442;54;20358;-70
2023/08/20 17:15:11;;;;;;;11.10;10.50;;;;;;;;;;2616443;39;20736;-71
2023/08/20 17:20:41;;;;;;;11.60;10.40;;;;;;;;;;2615772;39;20789;-71
2023/08/20 17:29:51;;;;;;;11.03;10.53;;;;;;;;;;2615391;54;20375;-69
2023/08/20 17:35:21;;;;;;;13.10;12.20;;;;;;;;;;2614964;54;20403;-71
2023/08/20 17:40:50;;;;;;;13.00;12.03;;;;;;;;;;2615383;54;20414;-70
2023/08/20 17:46:20;;;;;;;11.77;11.13;;;;;;;;;;2615517;46;20471;-70
2023/08/20 17:51:50;;;;;;;11.07;10.43;;;;;;;;;;2615102;54;20394;-71
2023/08/20 17:57:19;;;;;;;12.37;11.57;;;;;;;;;;2614769;54;20426;-75
2023/08/20 18:02:49;;;;;;;12.63;11.83;;;;;;;;;;2614674;54;20379;-75
2023/08/20 18:08:18;;;;;;;12.07;11.27;;;;;;;;;;2614556;54;20912;-76
2023/08/20 18:13:48;;;;;;;12.00;11.30;;;;;;;;;;2614459;54;20390;-74
2023/08/20 18:19:17;;;;;;;12.70;12.00;;;;;;;;;;2614884;54;20495;-75
2023/08/20 18:24:48;;;;;;;11.10;10.30;;;;;;;;;;2614725;54;20391;-71
2023/08/20 18:30:18;;;;;;;12.90;11.90;;;;;;;;;;2615270;46;20538;-73
2023/08/20 18:35:48;;;;;;;14.53;11.00;;;;;;;;;;2615329;54;20431;-72
2023/08/20 18:41:19;;;;;;;10.87;10.27;;;;;;;;;;2615128;54;20483;-76
2023/08/20 18:46:48;;;;;;;10.33;9.70;;;;;;;;;;2614936;54;20889;-72
2023/08/20 18:52:18;;;;;;;11.07;10.20;;;;;;;;;;2614605;54;20386;-73
2023/08/20 18:57:47;;;;;;;10.37;9.30;;;;;;;;;;2615502;39;20757;-72
2023/08/20 19:03:17;;;;;;;10.63;10.03;;;;;;;;;;2616042;39;20746;-73
2023/08/20 19:08:47;;;;;;;10.80;9.80;;;;;;;;;;2614739;54;20463;-74
2023/08/20 19:14:16;;;;;;;9.20;8.57;;;;;;;;;;2614831;54;20924;-73
2023/08/20 19:19:46;;;;;;;10.07;9.07;;;;;;;;;;2615231;39;20746;-74
2023/08/20 19:25:16;;;;;;;9.53;8.73;;;;;;;;;;2614410;54;20418;-73
2023/08/20 19:30:45;;;;;;;9.20;8.50;;;;;;;;;;2614754;54;20387;-74
2023/08/20 19:36:15;;;;;;;8.30;7.80;;;;;;;;;;2615215;46;20402;-75
2023/08/20 19:41:44;;;;;;;8.50;7.90;;;;;;;;;;2616302;39;20766;-75
2023/08/20 19:47:14;;;;;;;7.53;7.00;;;;;;;;;;2616142;39;20837;-75
2023/08/20 19:52:44;;;;;;;9.87;7.60;;;;;;;;;;2616081;54;20459;-75
2023/08/20 19:58:14;;;;;;;9.87;7.40;;;;;;;;;;2616258;54;20406;-75
2023/08/20 20:03:44;;;;;;;7.53;6.83;;;;;;;;;;2616221;54;20398;-75
2023/08/20 20:09:14;;;;;;;7.77;6.97;;;;;;;;;;2615938;54;20387;-75
2023/08/20 20:14:44;;;;;;;7.87;7.27;;;;;;;;;;2615658;54;20390;-76
2023/08/20 20:20:14;;;;;;;8.43;7.63;;;;;;;;;;2615682;46;20397;-76
2023/08/20 20:31:51;;;;;;;8.33;6.80;;;;;;;;;;2615067;54;20397;-76
2023/08/20 20:37:21;;;;;;;7.20;6.27;;;;;;;;;;2614831;54;20479;-75
2023/08/20 20:42:50;;;;;;;6.80;6.10;;;;;;;;;;2615157;54;20431;-75
2023/08/20 20:48:20;;;;;;;7.57;6.97;;;;;;;;;;2614538;54;20419;-74
2023/08/20 20:53:50;;;;;;;7.53;6.70;;;;;;;;;;2615591;39;20784;-74
2023/08/20 20:59:19;;;;;;;7.80;6.80;;;;;;;;;;2615343;54;20479;-76
2023/08/20 21:04:49;;;;;;;7.77;7.17;;;;;;;;;;2615569;39;20413;-74
2023/08/20 21:10:18;;;;;;;11.27;8.20;;;;;;;;;;2615173;54;20351;-74
2023/08/20 21:15:48;;;;;;;7.83;7.00;;;;;;;;;;2615262;54;20381;-74
2023/08/20 21:21:18;;;;;;;7.80;6.57;;;;;;;;;;2614979;54;20347;-74
2023/08/20 21:30:22;;;;;;;9.63;6.67;;;;;;;;;;2616392;39;20961;-74
2023/08/20 21:35:52;;;;;;;7.50;6.37;;;;;;;;;;2616038;54;20515;-75
2023/08/20 21:41:21;;;;;;;6.90;6.20;;;;;;;;;;2616277;54;20921;-75
2023/08/20 21:46:54;;;;;;;6.43;5.93;;;;;;;;;;2616138;54;20937;-75
2023/08/20 21:52:24;;;;;;;9.43;6.47;;;;;;;;;;2616065;54;20920;-75
2023/08/20 21:57:53;;;;;;;16.77;7.03;;;;;;;;;;2615806;39;20745;-72
2023/08/20 22:03:23;;;;;;;7.80;6.50;;;;;;;;;;2614960;54;20544;-71
2023/08/20 22:08:52;;;;;;;6.63;6.03;;;;;;;;;;2614821;54;20383;-72
2023/08/20 22:14:22;;;;;;;6.10;5.60;;;;;;;;;;2615485;54;21121;-71
2023/08/20 22:19:52;;;;;;;7.70;6.90;;;;;;;;;;2615379;54;20347;-71
2023/08/20 22:25:21;;;;;;;8.20;6.13;;;;;;;;;;2615443;54;20414;-71
2023/08/20 22:30:51;;;;;;;6.97;5.93;;;;;;;;;;2615259;54;20362;-72
2023/08/20 22:36:21;;;;;;;8.63;6.20;;;;;;;;;;2614900;54;20363;-73
2023/08/20 22:41:50;;;;;;;6.53;5.93;;;;;;;;;;2614721;54;20379;-74
2023/08/20 22:47:20;;;;;;;6.87;6.17;;;;;;;;;;2614904;54;20367;-74
2023/08/20 22:52:49;;;;;;;9.70;6.30;;;;;;;;;;2614843;54;21004;-74
2023/08/20 22:58:19;;;;;;;13.03;6.97;;;;;;;;;;2615293;54;20960;-74
2023/08/20 23:03:48;;;;;;;6.63;6.07;;;;;;;;;;2614978;54;20359;-73
2023/08/20 23:09:18;;;;;;;9.23;6.73;;;;;;;;;;2615171;54;20495;-74
2023/08/20 23:14:47;;;;;;;9.73;5.90;;;;;;;;;;2614533;54;20370;-74
2023/08/20 23:20:17;;;;;;;9.70;7.60;;;;;;;;;;2614706;54;20366;-74
2023/08/20 23:25:47;;;;;;;8.83;6.73;;;;;;;;;;2614291;54;20543;-74
2023/08/20 23:31:16;;;;;;;7.43;6.60;;;;;;;;;;2614675;54;20386;-73
2023/08/20 23:36:46;;;;;;;8.23;6.50;;;;;;;;;;2614576;54;20366;-72
2023/08/20 23:42:16;;;;;;;9.10;7.30;;;;;;;;;;2614493;54;20382;-73
2023/08/20 23:47:45;;;;;;;8.23;6.60;;;;;;;;;;2614873;39;20727;-73
2023/08/20 23:53:15;;;;;;;7.17;6.47;;;;;;;;;;2614524;47;20358;-73
2023/08/20 23:58:44;;;;;;;7.07;5.93;;;;;;;;;;2614582;54;20374;-74
